Time;durP1;ratioP1;P1;durP2;ratioP2;P2;SDS_P1;SDS_P2;PMS_P1;PMS_P2;Temp;Humidity;BMP_temperature;BMP_pressure;BME280_temperature;BME280_humidity;BME280_pressure;Samples;Min_cycle;Max_cycle;Signal;HPM_P1;HPM_P2
2021/03/16 00:01:30;;;;;;;9.67;8.70;;;3.60;99.90;;;4.48;100.00;97989.34;5207672;28;20203;-61
2021/03/16 00:04:03;;;;;;;10.03;8.93;;;3.70;99.90;;;4.51;100.00;97999.72;5207848;28;20205;-61
2021/03/16 00:06:35;;;;;;;11.17;8.93;;;3.70;99.90;;;4.44;100.00;97994.94;5207518;28;20223;-61
2021/03/16 00:09:07;;;;;;;11.77;8.77;;;3.60;99.90;;;4.43;100.00;97996.53;5179748;28;20205;-61
2021/03/16 00:11:39;;;;;;;11.47;9.17;;;3.60;99.90;;;4.47;100.00;98002.78;5171744;28;20198;-61
2021/03/16 00:14:11;;;;;;;14.20;9.27;;;3.60;99.90;;;4.40;100.00;98001.34;5207788;28;20772;-61
2021/03/16 00:16:44;;;;;;;12.40;9.53;;;3.60;99.90;;;4.50;100.00;98006.44;5206604;28;20221;-61
2021/03/16 00:19:17;;;;;;;10.93;9.43;;;3.60;99.90;;;4.49;100.00;98008.81;5207541;28;20192;-61
2021/03/16 00:21:49;;;;;;;13.37;8.43;;;3.60;99.90;;;4.48;99.61;98015.53;5206482;28;20287;-60
2021/03/16 00:24:21;;;;;;;15.67;9.77;;;3.60;99.90;;;4.45;99.84;98022.00;5173711;28;20743;-61
2021/03/16 00:26:54;;;;;;;12.60;9.20;;;3.60;99.90;;;4.43;99.52;98010.84;5179097;28;20219;-61
2021/03/16 00:29:26;;;;;;;14.20;9.47;;;3.60;99.90;;;4.45;99.36;98022.00;5207062;28;20202;-61
2021/03/16 00:31:59;;;;;;;12.80;9.77;;;3.60;99.90;;;4.41;98.95;98022.50;5207426;28;20195;-61
2021/03/16 00:34:31;;;;;;;13.67;9.07;;;3.60;99.90;;;4.44;99.06;98026.16;5206878;28;20228;-61
2021/03/16 00:37:03;;;;;;;12.23;9.17;;;3.60;99.90;;;4.39;98.57;98022.38;5205051;28;20232;-61
2021/03/16 00:39:36;;;;;;;12.37;8.67;;;3.50;99.90;;;4.40;98.94;98030.84;5206786;28;20559;-60
2021/03/16 00:42:08;;;;;;;12.80;8.77;;;3.60;99.90;;;4.41;99.05;98033.50;5166912;28;20211;-61
2021/03/16 00:44:40;;;;;;;12.50;8.47;;;3.50;99.90;;;4.45;97.68;98030.47;5181115;28;20203;-61
2021/03/16 00:47:12;;;;;;;13.80;8.53;;;3.50;99.90;;;4.40;97.21;98035.91;5206291;28;20309;-61
2021/03/16 00:49:45;;;;;;;11.10;8.63;;;3.50;99.90;;;4.46;97.62;98037.31;5174579;28;20201;-61
2021/03/16 00:52:17;;;;;;;14.17;8.47;;;3.50;99.90;;;4.40;97.12;98040.97;5187300;28;20205;-60
2021/03/16 00:54:49;;;;;;;13.73;8.10;;;3.50;99.90;;;4.39;97.01;98042.59;5171573;28;20286;-61
2021/03/16 00:57:22;;;;;;;12.77;8.43;;;3.50;99.90;;;4.42;96.05;98041.97;5165783;28;20219;-60
2021/03/16 00:59:54;;;;;;;11.03;8.07;;;3.60;99.90;;;4.44;96.56;98040.47;5194622;28;20215;-61
2021/03/16 01:02:36;;;;;;;10.57;8.27;;;3.60;99.90;;;4.42;97.32;98037.81;5206799;28;20244;-61
2021/03/16 01:05:09;;;;;;;10.90;7.40;;;3.50;99.90;;;4.38;97.65;98045.91;5203473;28;20205;-60
2021/03/16 01:07:41;;;;;;;10.70;7.87;;;3.50;99.90;;;4.40;98.04;98046.91;5206299;28;20570;-61
2021/03/16 01:10:18;;;;;;;11.07;7.53;;;3.60;99.90;;;4.48;96.50;98055.16;5202533;28;20202;-61
2021/03/16 01:12:51;;;;;;;12.57;8.37;;;3.60;99.90;;;4.39;96.16;98051.84;5205957;28;20204;-60
2021/03/16 01:15:23;;;;;;;10.33;7.13;;;3.50;99.90;;;4.41;96.74;98047.81;5206374;28;20233;-61
2021/03/16 01:17:55;;;;;;;9.93;7.17;;;3.50;99.90;;;4.43;97.05;98044.63;5205955;28;20231;-61
2021/03/16 01:20:28;;;;;;;9.83;6.67;;;3.60;99.90;;;4.40;97.17;98051.97;5192509;28;20197;-61
2021/03/16 01:23:00;;;;;;;11.67;7.97;;;3.60;99.90;;;4.46;97.30;98047.44;5177869;28;20564;-61
2021/03/16 01:25:32;;;;;;;11.50;7.20;;;3.60;99.90;;;4.47;96.59;98048.31;5189480;28;20239;-61
2021/03/16 01:28:06;;;;;;;13.23;7.20;;;3.50;99.90;;;4.59;95.75;98049.31;5205651;28;20302;-61
2021/03/16 01:30:38;;;;;;;10.00;6.40;;;3.50;99.90;;;4.51;94.96;98051.22;5186223;28;20195;-61
2021/03/16 01:33:10;;;;;;;9.93;6.77;;;3.50;99.90;;;4.49;94.92;98049.31;5186901;28;20690;-61
2021/03/16 01:35:42;;;;;;;10.70;6.40;;;3.40;99.90;;;4.49;95.53;98047.69;5205592;28;20699;-61
2021/03/16 01:38:14;;;;;;;12.93;6.87;;;3.60;99.90;;;4.50;95.92;98048.56;5205382;28;20222;-61
2021/03/16 01:40:47;;;;;;;9.77;6.80;;;3.60;99.90;;;4.46;96.23;98047.44;5187966;28;20291;-61
2021/03/16 01:43:23;;;;;;;10.73;7.37;;;3.60;99.90;;;4.40;96.10;98049.44;5187219;28;20200;-60
2021/03/16 01:45:55;;;;;;;13.37;6.10;;;3.50;99.90;;;4.41;96.56;98052.88;5205714;28;20230;-61
2021/03/16 01:48:31;;;;;;;9.33;6.43;;;3.60;99.90;;;4.37;96.29;98048.28;5198193;28;20192;-61
2021/03/16 01:51:07;;;;;;;11.37;6.03;;;3.50;99.90;;;4.40;97.01;98054.50;5166483;28;20203;-60
2021/03/16 01:53:41;;;;;;;11.13;6.20;;;3.60;99.90;;;4.39;97.16;98054.38;5205653;28;20210;-60
2021/03/16 01:56:29;;;;;;;7.90;6.07;;;3.60;99.90;;;4.36;96.88;98057.53;5190315;28;20265;-61
2021/03/16 01:59:02;;;;;;;8.20;6.40;;;3.50;99.90;;;4.43;97.71;98057.28;5205767;28;20236;-61
2021/03/16 02:01:34;;;;;;;8.23;5.97;;;3.60;99.90;;;4.38;96.74;98045.91;5205500;28;20578;-60
2021/03/16 02:04:06;;;;;;;10.63;6.00;;;3.50;99.90;;;4.39;96.38;98055.25;5205456;28;20225;-60
2021/03/16 02:06:46;;;;;;;9.70;5.80;;;3.50;99.90;;;4.48;96.38;98061.09;5204768;28;20251;-60
2021/03/16 02:09:29;;;;;;;9.43;5.83;;;3.50;99.90;;;4.37;94.92;98051.72;5198439;28;20189;-61
2021/03/16 02:12:10;;;;;;;7.47;5.40;;;3.50;99.90;;;4.32;92.67;98053.00;5179877;28;20198;-61
2021/03/16 02:14:48;;;;;;;9.23;5.87;;;3.50;99.90;;;4.31;94.57;98056.25;5172899;28;20218;-61
2021/03/16 02:17:28;;;;;;;7.30;5.00;;;3.50;99.90;;;4.25;93.48;98050.69;5175855;28;20313;-61
2021/03/16 02:20:19;;;;;;;8.43;5.27;;;3.40;99.90;;;4.20;94.96;98062.06;5198785;28;20212;-61
2021/03/16 02:22:53;;;;;;;8.63;5.33;;;3.40;99.90;;;4.18;95.71;98058.53;5205260;28;20215;-61
2021/03/16 02:26:03;;;;;;;10.63;5.90;;;3.40;99.90;;;4.13;95.43;98065.72;5193343;28;20220;-61
2021/03/16 02:29:03;;;;;;;13.50;4.90;;;3.40;99.90;;;4.04;94.99;98060.75;5159871;28;20732;-61
2021/03/16 02:31:38;;;;;;;10.97;5.40;;;3.40;99.90;;;4.03;95.68;98069.13;5171622;28;20195;-61
2021/03/16 02:34:12;;;;;;;10.30;5.10;;;3.40;99.90;;;4.11;96.53;98066.34;5204949;28;20717;-59
2021/03/16 02:36:47;;;;;;;10.57;5.80;;;3.30;99.90;;;4.19;96.31;98065.34;5204662;28;20218;-61
2021/03/16 02:39:21;;;;;;;7.93;5.33;;;3.30;99.90;;;4.15;94.68;98074.34;5205196;28;20224;-61
2021/03/16 02:41:53;;;;;;;8.17;5.47;;;3.40;99.90;;;4.14;94.87;98071.66;5185702;28;20199;-61
2021/03/16 02:44:26;;;;;;;8.27;5.63;;;3.30;99.90;;;4.13;95.43;98080.00;5184611;28;20208;-61
2021/03/16 02:46:59;;;;;;;8.97;5.80;;;3.30;99.90;;;4.14;95.43;98071.66;5203785;28;20227;-61
2021/03/16 02:49:33;;;;;;;7.60;5.83;;;3.30;99.90;;;4.10;95.85;98075.56;5195692;28;20682;-59
2021/03/16 02:52:06;;;;;;;7.03;5.93;;;3.40;99.90;;;4.09;96.10;98085.53;5177527;28;20223;-61
2021/03/16 02:54:39;;;;;;;7.53;6.00;;;3.40;99.90;;;4.09;95.75;98083.03;5164246;28;20746;-60
2021/03/16 02:57:16;;;;;;;7.30;6.50;;;3.30;99.90;;;4.10;95.94;98084.81;5199178;28;20214;-61
2021/03/16 02:59:49;;;;;;;9.57;6.07;;;3.40;99.90;;;4.21;94.46;98081.56;5188791;28;20194;-59
2021/03/16 03:02:23;;;;;;;8.27;6.30;;;3.30;99.90;;;4.19;95.12;98088.13;5191060;28;20677;-60
2021/03/16 03:04:56;;;;;;;8.77;6.47;;;3.40;99.90;;;4.22;95.06;98080.78;5202643;28;20198;-60
2021/03/16 03:07:29;;;;;;;9.17;6.33;;;3.40;99.90;;;4.18;95.10;98087.22;5203506;28;20197;-59
2021/03/16 03:10:02;;;;;;;7.83;6.13;;;3.40;99.90;;;4.24;95.19;98085.22;5200830;28;20198;-60
2021/03/16 03:12:34;;;;;;;7.50;6.67;;;3.50;99.90;;;4.22;96.14;98090.91;5184402;28;20215;-61
2021/03/16 03:15:08;;;;;;;8.20;6.00;;;3.50;99.90;;;4.20;96.26;98089.88;5189807;28;20191;-61
2021/03/16 03:17:41;;;;;;;7.77;6.00;;;3.50;99.90;;;4.23;96.82;98097.72;5203751;28;20230;-61
2021/03/16 03:20:16;;;;;;;9.90;5.80;;;3.50;99.90;;;4.25;97.11;98097.09;5204819;28;20230;-61
2021/03/16 03:22:57;;;;;;;7.93;5.20;;;3.50;99.90;;;4.22;96.24;98095.97;5205013;28;20201;-60
2021/03/16 03:25:35;;;;;;;7.40;5.50;;;3.40;99.90;;;4.16;95.33;98100.50;5202937;28;20309;-61
2021/03/16 03:28:14;;;;;;;8.40;5.20;;;3.40;99.90;;;4.19;96.54;98110.88;5207762;28;20190;-61
2021/03/16 03:30:46;;;;;;;7.33;5.30;;;3.40;99.90;;;4.16;95.52;98105.56;5186868;28;20207;-61
2021/03/16 03:33:22;;;;;;;8.73;4.90;;;3.40;99.90;;;4.13;94.71;98110.38;5188716;28;20201;-60
2021/03/16 03:35:54;;;;;;;7.73;5.53;;;3.40;99.90;;;4.17;96.01;98108.22;5190009;28;20686;-61
2021/03/16 03:38:29;;;;;;;8.17;5.47;;;3.40;99.90;;;4.12;95.08;98113.63;5207826;28;20225;-61
2021/03/16 03:41:04;;;;;;;7.03;5.00;;;3.40;99.90;;;4.10;94.88;98120.22;5195502;28;20211;-60
2021/03/16 03:43:38;;;;;;;8.10;5.43;;;3.40;99.90;;;4.09;94.09;98116.78;5208575;28;20203;-60
2021/03/16 03:46:11;;;;;;;8.67;5.83;;;3.40;99.90;;;4.17;94.85;98118.31;5207997;28;20269;-61
2021/03/16 03:48:45;;;;;;;6.07;5.47;;;3.40;99.90;;;4.17;95.52;98130.09;5207476;28;20588;-61
2021/03/16 03:51:21;;;;;;;6.00;5.50;;;3.40;99.90;;;4.20;95.74;98132.88;5191158;28;20703;-61
2021/03/16 03:53:54;;;;;;;7.43;5.93;;;3.40;99.90;;;4.25;94.51;98151.88;5184698;28;20204;-61
2021/03/16 03:56:28;;;;;;;9.27;6.23;;;3.40;99.90;;;4.09;94.57;98151.31;5187816;28;20258;-61
2021/03/16 03:59:03;;;;;;;9.47;6.00;;;3.40;99.90;;;3.84;94.45;98147.53;5187719;28;20220;-61
2021/03/16 04:01:35;;;;;;;7.57;6.00;;;3.20;99.90;;;3.73;94.32;98152.41;5199007;28;20197;-60
2021/03/16 04:04:09;;;;;;;8.30;6.83;;;3.10;99.90;;;3.72;95.38;98155.69;5207850;28;20564;-61
2021/03/16 04:06:42;;;;;;;10.60;6.23;;;3.10;99.90;;;3.68;96.98;98156.16;5207358;28;20228;-60
2021/03/16 04:09:15;;;;;;;9.13;6.33;;;3.10;99.90;;;3.74;97.45;98154.19;5207583;28;20190;-61
2021/03/16 04:11:47;;;;;;;7.83;6.47;;;3.10;99.90;;;3.61;97.02;98153.13;5193059;28;20190;-61
2021/03/16 04:14:20;;;;;;;12.20;7.10;;;3.00;99.90;;;3.67;97.31;98156.94;5207680;28;20753;-60
2021/03/16 04:16:52;;;;;;;8.70;6.90;;;3.00;99.90;;;3.61;97.40;98159.81;5207108;28;20631;-60
2021/03/16 04:19:26;;;;;;;11.67;7.00;;;3.00;99.90;;;3.60;97.73;98158.91;5207299;28;20225;-61
2021/03/16 04:21:58;;;;;;;12.53;7.97;;;3.00;99.90;;;3.66;98.05;98163.59;5207229;28;20202;-61
2021/03/16 04:24:31;;;;;;;10.60;7.30;;;3.00;99.90;;;3.71;98.58;98162.38;5190512;28;20206;-60
2021/03/16 04:27:03;;;;;;;8.20;6.67;;;3.00;99.90;;;3.70;98.70;98162.25;5199599;28;20214;-60
2021/03/16 04:29:35;;;;;;;8.80;6.40;;;3.00;99.90;;;3.68;98.59;98168.81;5194818;28;20631;-61
2021/03/16 04:32:07;;;;;;;10.80;6.43;;;3.00;99.90;;;3.61;99.08;98170.81;5182856;28;20574;-60
2021/03/16 04:34:40;;;;;;;10.53;6.47;;;3.00;99.90;;;3.64;98.98;98166.78;5182598;28;20202;-61
2021/03/16 04:37:13;;;;;;;11.20;6.50;;;3.00;99.90;;;3.66;98.29;98176.25;5203879;28;20216;-61
2021/03/16 04:39:45;;;;;;;10.17;6.50;;;3.00;99.90;;;3.72;99.12;98170.84;5205518;28;20224;-61
2021/03/16 04:42:17;;;;;;;9.13;6.73;;;3.10;99.90;;;3.73;99.09;98175.16;5202031;28;20201;-61
2021/03/16 04:44:49;;;;;;;9.23;6.87;;;3.10;99.90;;;3.81;98.70;98181.78;5206939;28;20577;-61
2021/03/16 04:47:21;;;;;;;9.53;6.17;;;3.10;99.90;;;3.85;99.05;98178.75;5203107;28;20198;-61
2021/03/16 04:49:54;;;;;;;9.37;6.13;;;3.10;99.90;;;3.81;98.96;98186.84;5186761;28;20210;-61
2021/03/16 04:52:26;;;;;;;10.87;6.47;;;3.10;99.90;;;3.70;97.93;98193.47;5188716;28;20201;-60
2021/03/16 04:54:58;;;;;;;6.57;5.90;;;3.10;99.90;;;3.72;98.58;98186.94;5202742;28;20198;-61
2021/03/16 04:57:30;;;;;;;8.77;6.20;;;3.00;99.90;;;3.80;98.43;98195.16;5204002;28;20198;-61
2021/03/16 05:00:04;;;;;;;10.50;6.90;;;3.10;99.90;;;3.79;98.56;98193.41;5206925;28;20201;-61
2021/03/16 05:02:36;;;;;;;9.63;6.63;;;3.10;99.90;;;3.82;98.85;98196.19;5190250;28;20201;-61
2021/03/16 05:05:11;;;;;;;6.83;5.93;;;3.10;99.90;;;3.76;98.21;98195.66;5206522;28;20211;-61
2021/03/16 05:07:43;;;;;;;9.77;6.70;;;3.00;99.90;;;3.79;98.62;98203.50;5184393;28;20236;-61
2021/03/16 05:10:16;;;;;;;8.90;6.37;;;3.10;99.90;;;3.76;98.87;98204.13;5187802;28;20226;-60
2021/03/16 05:12:48;;;;;;;7.20;6.23;;;3.10;99.90;;;3.60;98.06;98208.56;5182508;28;20199;-61
2021/03/16 05:15:20;;;;;;;8.53;6.57;;;3.00;99.90;;;3.59;98.48;98216.91;5197082;28;20598;-62
2021/03/16 05:17:52;;;;;;;10.47;7.93;;;2.90;99.90;;;3.65;98.60;98224.16;5193415;28;20663;-61
2021/03/16 05:20:25;;;;;;;9.30;7.67;;;2.90;99.90;;;3.65;98.72;98219.09;5197951;28;20202;-61
2021/03/16 05:22:57;;;;;;;12.10;7.40;;;2.90;99.90;;;3.65;98.63;98225.03;5193554;28;20206;-61
2021/03/16 05:25:30;;;;;;;10.70;6.60;;;3.00;99.90;;;3.61;98.36;98228.94;5198661;28;20245;-60
2021/03/16 05:28:02;;;;;;;9.73;7.27;;;2.90;99.90;;;3.58;98.55;98223.59;5205992;28;20209;-61
2021/03/16 05:30:34;;;;;;;9.33;6.47;;;2.90;99.90;;;3.58;98.78;98232.81;5191607;28;20569;-61
2021/03/16 05:33:07;;;;;;;8.50;6.67;;;2.80;99.90;;;3.58;98.66;98230.31;5196541;28;20250;-61
2021/03/16 05:35:40;;;;;;;6.90;6.20;;;2.90;99.90;;;3.54;98.87;98231.63;5184578;28;20233;-60
2021/03/16 05:38:14;;;;;;;9.10;6.40;;;2.80;99.90;;;3.55;98.72;98235.09;5190823;28;20243;-61
2021/03/16 05:40:46;;;;;;;12.37;6.60;;;2.80;99.90;;;3.53;98.67;98237.47;5189514;28;20631;-61
2021/03/16 05:43:19;;;;;;;8.50;6.33;;;2.80;99.90;;;3.53;98.09;98239.97;5203730;28;20233;-60
2021/03/16 05:45:55;;;;;;;7.53;6.00;;;2.80;99.90;;;3.52;98.32;98243.28;5211499;22;20249;-62
2021/03/16 05:48:29;;;;;;;7.90;6.73;;;2.90;99.90;;;3.59;98.82;98245.59;5200590;28;20218;-59
2021/03/16 05:51:03;;;;;;;6.40;5.63;;;2.80;99.90;;;3.59;98.69;98245.59;5199766;28;20210;-58
2021/03/16 05:53:35;;;;;;;8.90;6.00;;;2.90;99.90;;;3.64;99.13;98258.66;5205613;28;20773;-58
2021/03/16 05:56:07;;;;;;;7.73;6.47;;;2.90;99.90;;;3.72;98.35;98259.31;5205717;28;20221;-60
2021/03/16 05:58:39;;;;;;;9.17;6.23;;;2.90;99.90;;;3.60;98.85;98259.97;5203314;28;20225;-57
2021/03/16 06:01:14;;;;;;;9.17;6.20;;;2.90;99.90;;;3.58;98.78;98261.50;5202642;28;20688;-59
2021/03/16 06:03:47;;;;;;;6.27;5.53;;;2.90;99.90;;;3.68;98.75;98270.78;5197001;28;20197;-59
2021/03/16 06:06:20;;;;;;;11.27;6.13;;;2.90;99.90;;;3.69;98.82;98271.69;5204085;28;20573;-59
2021/03/16 06:08:52;;;;;;;7.53;5.10;;;2.90;99.90;;;3.65;98.97;98274.69;5211410;28;20190;-58
2021/03/16 06:11:24;;;;;;;11.20;6.43;;;2.90;99.90;;;3.62;99.04;98285.41;5198642;28;20580;-59
2021/03/16 06:13:57;;;;;;;9.03;6.33;;;2.90;99.90;;;3.58;98.41;98276.66;5214810;28;20582;-59
2021/03/16 06:16:35;;;;;;;10.50;6.03;;;2.90;99.90;;;3.58;98.57;98284.25;5201922;28;20221;-59
2021/03/16 06:19:07;;;;;;;12.77;6.13;;;2.90;99.90;;;3.64;98.61;98286.44;5221116;28;20260;-60
2021/03/16 06:21:40;;;;;;;9.47;6.30;;;2.90;99.90;;;3.64;98.54;98285.56;5202501;28;20681;-59
2021/03/16 06:24:14;;;;;;;9.83;6.13;;;2.90;99.90;;;3.56;98.09;98293.31;5202925;28;20199;-59
2021/03/16 06:26:48;;;;;;;8.63;6.30;;;2.90;99.90;;;3.53;98.39;98299.75;5205016;28;20219;-59
2021/03/16 06:29:20;;;;;;;9.17;6.50;;;2.90;99.90;;;3.59;99.20;98296.13;5199641;28;20208;-59
2021/03/16 06:31:52;;;;;;;9.33;6.53;;;2.90;99.90;;;3.61;98.59;98304.75;5199970;28;20208;-58
2021/03/16 06:34:26;;;;;;;9.07;6.10;;;2.90;99.90;;;3.62;98.55;98303.09;5199411;28;20668;-60
2021/03/16 06:37:02;;;;;;;10.70;5.90;;;2.90;99.90;;;3.75;98.29;98300.03;5204625;28;20240;-59
2021/03/16 06:39:34;;;;;;;11.70;6.87;;;3.00;99.90;;;3.74;97.98;98296.63;5194395;28;20310;-60
2021/03/16 06:42:06;;;;;;;9.50;7.10;;;3.00;99.90;;;3.71;97.98;98318.22;5204648;28;20202;-60
2021/03/16 06:44:38;;;;;;;11.73;7.53;;;3.00;99.90;;;3.74;98.20;98310.91;5204926;28;20237;-58
2021/03/16 06:47:15;;;;;;;10.80;5.90;;;3.00;99.90;;;3.86;98.06;98316.16;5204561;28;20236;-59
2021/03/16 06:49:47;;;;;;;9.27;6.03;;;3.10;99.90;;;3.88;97.37;98315.56;5203093;28;20612;-60
2021/03/16 06:52:26;;;;;;;8.27;5.90;;;3.10;99.90;;;3.93;97.92;98321.94;5196560;28;20580;-60
2021/03/16 06:55:10;;;;;;;8.50;6.37;;;3.10;99.90;;;3.93;97.93;98321.94;5194740;28;20203;-60
2021/03/16 06:57:42;;;;;;;11.30;7.90;;;3.20;99.90;;;3.90;97.91;98325.81;5196160;28;20305;-59
2021/03/16 07:00:16;;;;;;;13.97;10.17;;;3.20;99.90;;;3.84;97.44;98323.63;5207568;28;20214;-59
2021/03/16 07:02:48;;;;;;;16.73;7.53;;;3.10;99.90;;;3.74;95.82;98338.72;5193017;28;20202;-58
2021/03/16 07:05:29;;;;;;;12.43;8.00;;;3.00;99.90;;;3.72;97.25;98347.78;5214761;28;20202;-60
2021/03/16 07:08:06;;;;;;;12.50;7.23;;;3.10;99.90;;;3.77;97.49;98346.56;5200903;28;20220;-60
2021/03/16 07:10:40;;;;;;;10.53;6.97;;;3.10;99.90;;;3.82;97.05;98353.81;5199392;28;20213;-59
2021/03/16 07:13:12;;;;;;;10.30;5.63;;;3.10;99.90;;;3.83;96.60;98357.22;5194736;28;20205;-60
2021/03/16 07:15:45;;;;;;;8.43;6.10;;;3.10;99.90;;;3.78;96.34;98358.47;5204055;28;20215;-59
2021/03/16 07:18:19;;;;;;;8.27;5.70;;;3.10;99.90;;;3.77;97.30;98371.84;5202888;28;20585;-59
2021/03/16 07:20:52;;;;;;;8.33;6.00;;;3.10;99.90;;;3.83;97.82;98367.34;5206479;28;20207;-60
2021/03/16 07:23:27;;;;;;;10.37;6.37;;;3.20;99.90;;;3.82;97.33;98366.47;5187534;28;20200;-59
2021/03/16 07:25:59;;;;;;;9.17;6.60;;;3.20;99.90;;;3.90;98.01;98366.28;5187289;28;20286;-59
2021/03/16 07:28:33;;;;;;;9.20;5.77;;;3.20;99.90;;;3.93;98.32;98375.03;5186763;28;20202;-60
2021/03/16 07:31:06;;;;;;;10.83;6.10;;;3.20;99.90;;;3.97;98.29;98373.66;5187473;28;20200;-61
2021/03/16 07:33:41;;;;;;;8.17;6.03;;;3.20;99.90;;;3.98;98.57;98383.94;5201169;28;20227;-61
2021/03/16 07:36:13;;;;;;;7.93;5.67;;;3.30;99.90;;;3.96;98.06;98389.59;5200294;28;20321;-59
2021/03/16 07:38:47;;;;;;;13.73;7.10;;;3.30;99.90;;;4.00;97.94;98387.47;5190899;28;20260;-60
2021/03/16 07:41:19;;;;;;;7.07;5.83;;;3.30;99.90;;;3.94;97.86;98391.97;5201258;28;20657;-60
2021/03/16 07:44:03;;;;;;;10.87;6.73;;;3.30;99.90;;;3.96;98.62;98395.53;5207024;28;20206;-60
2021/03/16 07:46:44;;;;;;;10.73;6.10;;;3.30;99.90;;;4.04;98.62;98391.19;5199425;28;20229;-60
2021/03/16 07:49:29;;;;;;;16.03;7.10;;;3.40;99.90;;;4.04;98.46;98393.72;5190206;28;20660;-60
2021/03/16 07:52:03;;;;;;;12.07;7.90;;;3.40;99.90;;;4.04;97.67;98402.19;5187542;28;20215;-61
2021/03/16 07:54:39;;;;;;;12.03;8.10;;;3.30;99.90;;;3.98;96.03;98408.34;5206263;28;20203;-61
2021/03/16 07:57:11;;;;;;;11.70;6.80;;;3.30;99.90;;;4.05;97.58;98406.47;5206183;28;20222;-60
2021/03/16 07:59:43;;;;;;;17.07;6.83;;;3.30;99.90;;;4.11;98.05;98406.16;5201991;28;20219;-60
2021/03/16 08:02:27;;;;;;;11.57;7.20;;;3.40;99.90;;;4.14;97.43;98410.59;5207284;28;20196;-60
2021/03/16 08:05:00;;;;;;;8.77;6.60;;;3.40;99.90;;;4.21;97.05;98412.94;5207399;28;20627;-60
2021/03/16 08:07:32;;;;;;;12.20;7.40;;;3.50;99.90;;;4.20;97.51;98417.09;5205493;28;20225;-60
2021/03/16 08:10:06;;;;;;;9.27;6.73;;;3.50;99.90;;;4.30;97.68;98418.81;5207404;28;20548;-60
2021/03/16 08:12:38;;;;;;;11.77;6.67;;;3.50;99.90;;;4.37;98.08;98416.09;5207313;28;20708;-60
2021/03/16 08:15:13;;;;;;;12.83;7.17;;;3.60;99.90;;;4.38;96.34;98417.88;5220026;28;20203;-61
2021/03/16 08:17:45;;;;;;;8.57;6.70;;;3.60;99.90;;;4.45;97.17;98419.31;5210121;28;20223;-60
2021/03/16 08:20:25;;;;;;;9.60;6.73;;;3.70;99.90;;;4.55;97.29;98421.91;5218879;28;20220;-59
2021/03/16 08:23:10;;;;;;;12.23;6.97;;;3.70;99.90;;;4.65;96.49;98423.63;5185504;28;20627;-60
2021/03/16 08:25:44;;;;;;;10.13;6.33;;;3.70;99.90;;;4.58;94.27;98421.28;5205296;28;20565;-60
2021/03/16 08:28:17;;;;;;;10.60;7.00;;;3.80;99.90;;;4.73;95.60;98422.66;5221396;28;20655;-61
2021/03/16 08:30:49;;;;;;;10.97;6.77;;;3.90;99.90;;;4.72;94.54;98430.97;5199276;28;20215;-60
2021/03/16 08:33:22;;;;;;;8.57;6.77;;;3.90;99.90;;;4.80;94.80;98427.50;5196267;28;20208;-61
2021/03/16 08:35:58;;;;;;;13.17;6.73;;;4.00;99.90;;;4.91;93.71;98428.44;5209161;28;20250;-60
2021/03/16 08:38:32;;;;;;;9.60;6.53;;;4.00;99.90;;;4.87;91.31;98437.44;5214072;28;20298;-60
2021/03/16 08:41:09;;;;;;;9.03;6.50;;;4.00;99.90;;;4.86;92.56;98440.69;5215647;28;20199;-59
2021/03/16 08:43:43;;;;;;;6.90;6.00;;;4.00;99.90;;;4.97;93.43;98434.03;5195782;28;20288;-60
2021/03/16 08:46:15;;;;;;;10.03;6.73;;;3.90;99.90;;;4.99;92.27;98436.72;5204244;28;20222;-60
2021/03/16 08:48:47;;;;;;;9.13;6.90;;;4.00;99.90;;;4.96;93.70;98442.41;5206701;28;20219;-60
2021/03/16 08:51:23;;;;;;;8.90;6.90;;;4.10;99.90;;;4.99;93.12;98444.31;5212954;28;20544;-61
2021/03/16 08:53:55;;;;;;;11.80;7.40;;;4.10;99.90;;;4.97;92.06;98447.59;5206171;28;20194;-60
2021/03/16 08:56:28;;;;;;;10.33;6.97;;;4.00;99.90;;;5.03;93.71;98453.97;5190506;28;20228;-61
2021/03/16 08:59:04;;;;;;;9.57;6.53;;;4.10;99.90;;;4.95;92.85;98453.28;5184802;28;20225;-60
2021/03/16 09:01:38;;;;;;;11.07;6.67;;;4.10;99.90;;;5.05;92.90;98452.47;5203460;28;20550;-60
2021/03/16 09:04:12;;;;;;;11.37;7.23;;;4.20;99.90;;;4.84;90.10;98456.53;5221361;28;20193;-59
2021/03/16 09:06:45;;;;;;;9.30;7.40;;;4.10;99.90;;;5.04;92.80;98460.81;5215890;28;20766;-60
2021/03/16 09:09:26;;;;;;;9.03;7.17;;;4.20;99.90;;;4.96;89.92;98461.03;5225831;28;20292;-59
2021/03/16 09:11:59;;;;;;;7.80;6.57;;;4.10;99.90;;;5.08;90.39;98456.16;5209395;28;20281;-59
2021/03/16 09:14:31;;;;;;;9.13;6.73;;;4.20;99.90;;;5.16;89.49;98474.56;5200516;28;20196;-60
2021/03/16 09:17:05;;;;;;;9.67;6.80;;;4.30;99.90;;;5.33;91.90;98468.44;5213757;28;20217;-60
2021/03/16 09:19:38;;;;;;;9.13;7.70;;;4.40;99.90;;;5.31;92.13;98464.88;5223221;28;20639;-60
2021/03/16 09:22:11;;;;;;;9.17;7.17;;;4.40;99.90;;;5.29;90.11;98459.66;5204956;28;20209;-60
2021/03/16 09:24:44;;;;;;;12.37;7.27;;;4.50;99.90;;;5.27;87.78;98466.25;5204407;28;20206;-60
2021/03/16 09:27:17;;;;;;;11.07;7.00;;;4.50;99.90;;;5.35;90.83;98465.28;5204940;28;20252;-60
2021/03/16 09:29:50;;;;;;;13.03;7.03;;;4.50;99.90;;;5.30;89.37;98470.69;5209050;28;20293;-60
2021/03/16 09:32:22;;;;;;;9.43;6.00;;;4.50;99.90;;;5.29;92.02;98463.84;5207556;28;20562;-60
2021/03/16 09:34:55;;;;;;;9.37;6.97;;;4.50;99.90;;;5.46;91.59;98468.72;5224680;28;20680;-61
2021/03/16 09:37:27;;;;;;;7.83;6.47;;;4.50;99.90;;;5.28;88.44;98472.19;5223246;28;20251;-60
2021/03/16 09:40:00;;;;;;;12.03;6.20;;;4.40;99.90;;;5.18;87.84;98470.53;5204888;28;20611;-60
2021/03/16 09:42:38;;;;;;;10.97;6.90;;;4.40;99.90;;;5.25;90.38;98475.34;5213700;28;20235;-60
2021/03/16 09:45:22;;;;;;;11.20;6.00;;;4.40;99.90;;;5.41;90.43;98475.94;5208472;28;20216;-61
2021/03/16 09:47:55;;;;;;;12.03;6.57;;;4.40;99.90;;;5.30;88.54;98483.38;5215465;28;20259;-60
2021/03/16 09:50:33;;;;;;;8.87;6.50;;;4.40;99.90;;;5.21;88.06;98480.94;5208003;28;20584;-61
2021/03/16 09:53:07;;;;;;;9.53;6.50;;;4.40;99.90;;;5.28;90.73;98477.28;5206783;28;20737;-60
2021/03/16 09:55:39;;;;;;;9.70;6.00;;;4.40;99.90;;;5.31;91.74;98478.41;5202730;28;20625;-59
2021/03/16 09:58:21;;;;;;;8.87;6.53;;;4.40;99.90;;;5.26;89.39;98484.72;5206212;28;20220;-60
2021/03/16 10:00:53;;;;;;;9.10;6.20;;;4.50;99.90;;;5.32;89.36;98485.28;5199725;28;20214;-60
2021/03/16 10:03:26;;;;;;;12.53;6.23;;;4.50;99.90;;;5.26;88.19;98482.19;5202464;28;20196;-61
2021/03/16 10:06:05;;;;;;;11.40;6.57;;;4.50;99.90;;;5.37;90.90;98478.94;5203418;28;20201;-60
2021/03/16 10:08:37;;;;;;;11.30;6.40;;;4.50;99.90;;;5.53;92.44;98482.84;5207726;28;20198;-59
2021/03/16 10:11:09;;;;;;;8.23;5.67;;;4.60;99.90;;;5.51;90.81;98481.81;5202914;28;20657;-60
2021/03/16 10:13:42;;;;;;;10.23;6.07;;;4.60;99.90;;;5.54;92.22;98485.47;5207231;28;20577;-61
2021/03/16 10:16:15;;;;;;;9.13;6.57;;;4.70;99.90;;;5.53;90.57;98487.91;5203422;28;20214;-61
2021/03/16 10:18:48;;;;;;;8.43;6.10;;;4.70;99.90;;;5.51;89.17;98482.69;5203267;28;20210;-60
2021/03/16 10:21:29;;;;;;;10.17;6.80;;;4.70;99.90;;;5.42;89.07;98481.91;5199489;28;20194;-60
2021/03/16 10:24:04;;;;;;;8.60;6.57;;;4.60;99.90;;;5.40;89.95;98474.16;5203522;28;20652;-60
2021/03/16 10:26:36;;;;;;;11.53;7.03;;;4.60;99.90;;;5.39;90.44;98469.84;5196037;28;20224;-60
2021/03/16 10:29:13;;;;;;;8.50;6.10;;;4.60;99.90;;;5.35;90.50;98472.88;5202957;28;20618;-63
2021/03/16 10:31:45;;;;;;;10.90;7.27;;;4.60;99.90;;;5.37;90.49;98467.94;5204047;28;20559;-61
2021/03/16 10:34:18;;;;;;;8.97;7.30;;;4.70;99.90;;;5.33;90.52;98466.78;5199222;28;20260;-59
2021/03/16 10:36:50;;;;;;;9.07;6.90;;;4.70;99.90;;;5.25;89.84;98465.22;5184964;28;20226;-61
2021/03/16 10:39:22;;;;;;;8.67;7.17;;;4.60;99.90;;;5.36;93.42;98474.66;5201481;28;20221;-61
2021/03/16 10:41:54;;;;;;;10.37;7.23;;;4.70;99.90;;;5.32;92.62;98480.22;5203444;28;20193;-60
2021/03/16 10:44:26;;;;;;;8.00;7.03;;;4.70;99.90;;;5.01;89.61;98480.78;5199248;28;20204;-60
2021/03/16 10:46:58;;;;;;;9.03;6.93;;;4.50;99.90;;;4.79;90.36;98481.44;5195321;28;20221;-60
2021/03/16 10:49:32;;;;;;;9.23;6.63;;;4.20;99.90;;;4.65;89.74;98481.84;5199106;28;20288;-60
2021/03/16 10:52:05;;;;;;;8.73;7.60;;;4.10;99.90;;;4.45;91.20;98475.88;5208652;28;20202;-59
2021/03/16 10:54:39;;;;;;;9.20;7.37;;;3.90;99.90;;;4.45;92.93;98487.63;5196697;28;20204;-60
2021/03/16 10:57:11;;;;;;;10.83;6.93;;;3.80;99.90;;;4.36;94.31;98487.69;5187113;28;20223;-58
2021/03/16 10:59:44;;;;;;;14.27;7.87;;;3.80;99.90;;;4.29;94.37;98478.66;5204983;28;20322;-59